createdAt,value
2018-04-10T04:04:12.503Z,3
2018-04-10T04:11:12.915Z,7
2018-04-10T04:14:13.101Z,10
2018-04-10T04:16:13.320Z,13
2018-04-10T04:18:13.375Z,17
2018-04-10T04:19:13.414Z,20
2018-04-10T04:20:43.575Z,23
2018-04-10T04:21:43.658Z,27
2018-04-10T04:22:13.625Z,30
2018-04-10T04:23:13.688Z,33
2018-04-10T04:23:43.663Z,37
2018-04-10T04:24:43.727Z,40
2018-04-10T04:25:13.829Z,43
2018-04-10T04:25:43.863Z,47
2018-04-10T04:26:13.919Z,50
2018-04-10T04:26:43.945Z,53
2018-04-10T04:27:13.954Z,57
2018-04-10T04:27:43.977Z,60
2018-04-10T04:28:14.027Z,67
2018-04-10T04:28:44.019Z,70
2018-04-10T04:29:14.057Z,73
2018-04-10T04:29:44.066Z,80
2018-04-10T04:30:14.122Z,87
2018-04-10T04:30:44.135Z,90
2018-04-10T04:31:14.162Z,97
2018-04-10T04:31:44.467Z,103
2018-04-10T04:32:14.273Z,107
2018-04-10T04:32:44.260Z,113
2018-04-10T04:33:14.307Z,117
2018-04-10T04:33:44.346Z,123
2018-04-10T04:34:14.345Z,130
2018-04-10T04:34:44.371Z,133
2018-04-10T04:35:14.432Z,140
2018-04-10T04:35:44.449Z,147
2018-04-10T04:36:14.496Z,153
2018-04-10T04:36:44.484Z,160
2018-04-10T04:37:14.529Z,163
2018-04-10T04:37:44.628Z,173
2018-04-10T04:38:14.591Z,180
2018-04-10T04:38:44.650Z,187
2018-04-10T04:39:14.646Z,193
2018-04-10T04:39:44.728Z,200
2018-04-10T04:40:14.698Z,207
2018-04-10T04:40:44.759Z,213
2018-04-10T04:41:14.760Z,220
2018-04-10T04:41:44.784Z,227
2018-04-10T04:42:14.824Z,237
2018-04-10T04:42:44.863Z,247
2018-04-10T04:43:15.077Z,257
2018-04-10T04:43:44.895Z,267
2018-04-10T04:44:15.003Z,280
2018-04-10T04:44:44.989Z,290
2018-04-10T04:45:15.001Z,300
2018-04-10T04:45:45.020Z,310
2018-04-10T04:46:15.121Z,323
2018-04-10T04:46:45.108Z,337
2018-04-10T04:47:15.127Z,347
2018-04-10T04:47:45.232Z,360
2018-04-10T04:48:15.186Z,370
2018-04-10T04:48:45.242Z,383
2018-04-10T04:49:15.280Z,393
2018-04-10T04:49:45.269Z,407
2018-04-10T04:50:15.345Z,420
2018-04-10T04:50:45.389Z,427
2018-04-10T04:51:15.439Z,440
2018-04-10T04:51:45.447Z,453
2018-04-10T04:52:15.466Z,463
2018-04-10T04:52:45.463Z,477
2018-04-10T04:53:15.555Z,490
2018-04-10T04:53:45.522Z,503
2018-04-10T04:54:15.593Z,513
2018-04-10T04:54:45.630Z,527
2018-04-10T04:55:15.688Z,540
2018-04-10T04:55:45.691Z,557
2018-04-10T04:56:15.688Z,570
2018-04-10T04:56:45.759Z,583
2018-04-10T04:57:15.757Z,600
2018-04-10T04:57:45.786Z,613
2018-04-10T04:58:15.810Z,627
2018-04-10T04:58:45.834Z,640
2018-04-10T04:59:15.929Z,653
2018-04-10T04:59:45.935Z,670
2018-04-10T05:00:15.940Z,683
2018-04-10T05:00:45.975Z,700
2018-04-10T05:01:15.995Z,713
2018-04-10T05:01:46.061Z,730
2018-04-10T05:02:16.062Z,743
2018-04-10T05:02:46.104Z,760
2018-04-10T05:03:16.116Z,773
2018-04-10T05:03:46.171Z,790
2018-04-10T05:04:16.178Z,807
2018-04-10T05:04:46.241Z,820
2018-04-10T05:05:16.552Z,837
2018-04-10T05:05:46.867Z,850
2018-04-10T05:06:16.310Z,863
2018-04-10T05:06:46.365Z,883
2018-04-10T05:07:16.416Z,900
2018-04-10T05:07:46.970Z,920
2018-04-10T05:08:16.462Z,940
2018-04-10T05:08:46.477Z,957
2018-04-10T05:09:16.514Z,977
2018-04-10T05:09:46.534Z,1000
2018-04-10T05:10:16.578Z,1020
2018-04-10T05:10:46.594Z,1040
2018-04-10T05:11:16.643Z,1060
2018-04-10T05:11:46.654Z,1073
2018-04-10T05:12:16.709Z,1093
2018-04-10T05:12:46.728Z,1113
2018-04-10T05:13:16.794Z,1133
2018-04-10T05:13:46.830Z,1157
2018-04-10T05:14:16.831Z,1177
2018-04-10T05:14:46.804Z,1197
2018-04-10T05:15:16.880Z,1220
2018-04-10T05:15:46.899Z,1240
2018-04-10T05:16:16.959Z,1263
2018-04-10T05:16:46.956Z,1280
2018-04-10T05:17:17.421Z,1300
2018-04-10T05:17:47.063Z,1323
2018-04-10T05:18:17.037Z,1343
2018-04-10T05:18:47.971Z,1363
2018-04-10T05:19:17.117Z,1383
2018-04-10T05:19:47.153Z,1403
2018-04-10T05:20:17.260Z,1423
2018-04-10T05:20:47.229Z,1443
2018-04-10T05:21:17.260Z,1463
2018-04-10T05:21:47.263Z,1483
2018-04-10T05:22:17.299Z,1497
2018-04-10T05:22:47.341Z,1517
2018-04-10T05:23:17.348Z,1537
2018-04-10T05:23:47.382Z,1553
2018-04-10T05:24:17.443Z,1570
2018-04-10T05:24:47.462Z,1590
2018-04-10T05:25:17.532Z,1607
2018-04-10T05:25:47.545Z,1623
2018-04-10T05:26:17.548Z,1640
2018-04-10T05:26:47.546Z,1657
2018-04-10T05:27:17.637Z,1673
2018-04-10T05:27:47.691Z,1687
2018-04-10T05:28:17.651Z,1703
2018-04-10T05:28:47.683Z,1713
2018-04-10T05:29:17.725Z,1730
2018-04-10T05:29:47.732Z,1747
2018-04-10T05:30:17.786Z,1763
2018-04-10T05:30:47.792Z,1780
2018-04-10T05:31:17.853Z,1793
2018-04-10T05:31:47.860Z,1810
2018-04-10T05:32:17.900Z,1830
2018-04-10T05:32:47.976Z,1847
2018-04-10T05:33:17.955Z,1863
2018-04-10T05:33:47.979Z,1880
2018-04-10T05:34:18.021Z,1900
2018-04-10T05:34:48.039Z,1917
2018-04-10T05:35:18.151Z,1933
2018-04-10T05:35:48.097Z,1950
2018-04-10T05:36:18.227Z,1967
2018-04-10T05:36:48.187Z,1987
2018-04-10T05:37:18.207Z,2007
2018-04-10T05:37:48.290Z,2023
2018-04-10T05:38:18.269Z,2043
2018-04-10T05:38:48.325Z,2063
2018-04-10T05:39:18.378Z,2080
2018-04-10T05:39:48.412Z,2100
2018-04-10T05:40:18.805Z,2117
2018-04-10T05:40:48.463Z,2133
2018-04-10T05:41:18.502Z,2147
2018-04-10T05:41:48.477Z,2163
2018-04-10T05:42:18.553Z,2180
2018-04-10T05:42:48.583Z,2197
2018-04-10T05:43:18.611Z,2213
2018-04-10T05:43:48.629Z,2230
2018-04-10T05:44:18.679Z,2243
2018-04-10T05:44:48.694Z,2260
2018-04-10T05:45:18.711Z,2273
2018-04-10T05:45:48.754Z,2287
2018-04-10T05:46:18.800Z,2303
2018-04-10T05:46:48.845Z,2317
2018-04-10T05:47:18.840Z,2333
2018-04-10T05:47:48.838Z,2347
2018-04-10T05:48:18.908Z,2360
2018-04-10T05:48:48.920Z,2373
2018-04-10T05:49:19.244Z,2390
2018-04-10T05:49:48.963Z,2407
2018-04-10T05:50:19.005Z,2423
2018-04-10T05:50:49.024Z,2440
2018-04-10T05:51:19.079Z,2457
2018-04-10T05:51:49.084Z,2473
2018-04-10T05:52:19.157Z,2490
2018-04-10T05:52:49.153Z,2510
2018-04-10T05:53:19.290Z,2527
2018-04-10T05:53:49.208Z,2547
2018-04-10T05:54:19.317Z,2560
2018-04-10T05:54:49.308Z,2580
2018-04-10T05:55:19.379Z,2597
2018-04-10T05:56:19.415Z,2633
2018-04-10T05:56:49.426Z,2653
2018-04-10T05:57:19.463Z,2673
2018-04-10T05:57:49.481Z,2693
2018-04-10T05:58:19.596Z,2710
2018-04-10T05:58:49.557Z,2737
2018-04-10T05:59:19.614Z,2757
2018-04-10T05:59:49.599Z,2773
2018-04-10T06:00:19.663Z,2793
2018-04-10T06:00:49.699Z,2817
2018-04-10T06:01:19.716Z,2837
2018-04-10T06:01:49.703Z,2857
2018-04-10T06:02:19.812Z,2880
2018-04-10T06:02:49.800Z,2897
2018-04-10T06:03:20.147Z,2920
2018-04-10T06:03:49.871Z,2943
2018-04-10T06:04:19.921Z,2963
2018-04-10T06:04:49.903Z,2987
2018-04-10T06:05:19.969Z,3003
2018-04-10T06:05:50.005Z,3023
2018-04-10T06:06:20.066Z,3040
2018-04-10T06:06:50.040Z,3057
2018-04-10T06:07:20.063Z,3070
2018-04-10T06:07:50.124Z,3087
2018-04-10T06:08:20.180Z,3103
2018-04-10T06:08:50.137Z,3123
2018-04-10T06:09:20.177Z,3140
2018-04-10T06:09:50.246Z,3123
2018-04-10T06:10:20.277Z,3093
2018-04-10T06:11:20.312Z,3097
2018-04-10T06:11:50.389Z,3113
2018-04-10T06:12:20.365Z,3157
2018-04-10T06:12:50.420Z,3207
2018-04-10T06:13:20.467Z,3247
2018-04-10T06:13:50.442Z,3267
2018-04-10T06:14:20.491Z,3363
2018-04-10T06:14:50.522Z,3397
2018-04-10T06:15:20.545Z,3483
2018-04-10T06:15:50.590Z,3523
2018-04-10T06:16:20.619Z,3557
2018-04-10T06:16:50.668Z,3587
2018-04-10T06:17:21.404Z,3617
2018-04-10T06:17:50.685Z,3643
2018-04-10T06:18:20.798Z,3670
2018-04-10T06:18:50.739Z,3700
2018-04-10T06:19:20.838Z,3737
2018-04-10T06:19:50.853Z,3780
2018-04-10T06:20:20.904Z,3820
2018-04-10T06:20:50.873Z,3850
2018-04-10T06:21:20.982Z,3883
2018-04-10T06:21:50.976Z,3920
2018-04-10T06:22:20.993Z,3960
2018-04-10T06:22:50.992Z,4010
2018-04-10T06:23:21.095Z,4273
2018-04-10T06:23:51.071Z,5053
2018-04-10T06:24:21.132Z,5623
2018-04-10T06:24:51.109Z,6053
2018-04-10T06:25:21.211Z,6343
2018-04-10T06:25:51.255Z,6210
2018-04-10T06:26:21.276Z,5973
2018-04-10T06:26:51.289Z,6180
2018-04-10T06:27:21.322Z,6857
2018-04-10T06:27:51.336Z,7517
2018-04-10T06:28:21.408Z,7577
2018-04-10T06:28:51.391Z,7420
2018-04-10T06:29:21.504Z,7290
2018-04-10T06:29:51.456Z,7260
2018-04-10T06:30:21.490Z,7533
2018-04-10T06:30:51.535Z,7930
2018-04-10T06:31:21.531Z,8443
2018-04-10T06:31:51.610Z,8920
2018-04-10T06:32:21.610Z,9127
2018-04-10T06:32:51.645Z,8897
2018-04-10T06:33:21.667Z,8373
2018-04-10T06:33:51.669Z,7990
2018-04-10T06:34:21.746Z,7447
2018-04-10T06:34:51.728Z,7600
2018-04-10T06:35:21.778Z,7927
2018-04-10T06:35:51.785Z,8273
2018-04-10T06:36:21.850Z,8833
2018-04-10T06:36:51.863Z,9083
2018-04-10T06:37:21.937Z,8933
2018-04-10T06:37:51.923Z,8863
2018-04-10T06:38:22.008Z,8777
2018-04-10T06:38:51.972Z,8977
2018-04-10T06:39:22.059Z,9167
2018-04-10T06:39:52.037Z,9363
2018-04-10T06:40:22.118Z,9620
2018-04-10T06:40:52.102Z,9820
2018-04-10T06:41:22.188Z,10180
2018-04-10T06:41:52.158Z,10317
2018-04-10T06:42:22.250Z,10267
2018-04-10T06:42:52.224Z,9423
2018-04-10T06:43:22.298Z,8493
2018-04-10T06:43:52.340Z,7940
2018-04-10T06:44:22.379Z,7793
2018-04-10T06:44:52.438Z,7753
2018-04-10T06:45:22.460Z,7760
2018-04-10T06:45:52.439Z,7817
2018-04-10T06:46:22.497Z,8250
2018-04-10T06:46:52.525Z,8467
2018-04-10T06:47:22.509Z,8387
2018-04-10T06:47:52.542Z,8263
2018-04-10T06:48:22.576Z,7713
2018-04-10T06:48:52.591Z,7780
2018-04-10T06:49:22.682Z,8450
2018-04-10T06:49:52.703Z,9407
2018-04-10T06:50:22.722Z,10877
2018-04-10T06:50:52.812Z,11287
2018-04-10T06:51:22.792Z,11203
2018-04-10T06:51:52.777Z,11063
2018-04-10T06:52:22.913Z,10823
2018-04-10T06:52:52.835Z,10553
2018-04-10T06:53:22.895Z,10377
2018-04-10T06:53:52.903Z,9100
2018-04-10T06:54:22.982Z,8430
2018-04-10T06:54:52.963Z,7617
2018-04-10T06:55:23.053Z,7453
2018-04-10T06:55:53.030Z,7867
2018-04-10T06:56:23.075Z,8317
2018-04-10T06:56:53.327Z,8437
2018-04-10T06:57:23.155Z,8667
2018-04-10T06:57:53.198Z,8797
2018-04-10T06:58:23.210Z,8597
2018-04-10T06:58:53.294Z,8867
2018-04-10T06:59:23.258Z,9347
2018-04-10T06:59:53.287Z,9610
2018-04-10T07:00:23.402Z,9317
2018-04-10T07:00:53.427Z,8833
2018-04-10T07:01:23.405Z,8950
2018-04-10T07:01:53.444Z,8943
2018-04-10T07:02:23.463Z,9783
2018-04-10T07:02:53.457Z,10227
2018-04-10T07:03:23.584Z,11483
2018-04-10T07:03:53.532Z,11263
2018-04-10T07:04:23.620Z,10400
2018-04-10T07:04:53.592Z,9790
2018-04-10T07:05:24.157Z,9600
2018-04-10T07:05:53.711Z,9930
2018-04-10T07:06:23.697Z,10717
2018-04-10T07:06:53.719Z,10387
2018-04-10T07:07:23.745Z,10067
2018-04-10T07:07:53.787Z,9530
2018-04-10T07:08:53.828Z,10690
2018-04-10T07:09:23.915Z,12560
2018-04-10T07:09:53.882Z,12897
2018-04-10T07:10:23.956Z,12610
2018-04-10T07:10:53.941Z,12150
2018-04-10T07:11:23.990Z,11717
2018-04-10T07:11:54.013Z,12073
2018-04-10T07:12:24.100Z,12310
2018-04-10T07:12:54.068Z,12927
2018-04-10T07:13:24.151Z,13760
2018-04-10T07:13:54.140Z,14633
2018-04-10T07:14:24.190Z,14793
2018-04-10T07:14:54.186Z,14850
2018-04-10T07:15:24.309Z,14457
2018-04-10T07:15:54.320Z,13860
2018-04-10T07:16:24.356Z,13717
2018-04-10T07:16:54.369Z,14257
2018-04-10T07:17:24.373Z,13987
2018-04-10T07:17:54.467Z,12620
2018-04-10T07:18:24.483Z,11803
2018-04-10T07:18:54.457Z,11550
2018-04-10T07:19:24.497Z,12247
2018-04-10T07:19:54.548Z,12683
2018-04-10T07:20:24.621Z,12833
2018-04-10T07:20:54.602Z,12533
2018-04-10T07:21:24.623Z,12480
2018-04-10T07:21:54.623Z,12590
2018-04-10T07:22:24.731Z,12410
2018-04-10T07:22:54.690Z,12653
2018-04-10T07:23:24.802Z,11563
2018-04-10T07:23:54.783Z,10643
2018-04-10T07:24:24.793Z,10713
2018-04-10T07:24:54.820Z,12213
2018-04-10T07:25:24.909Z,13317
2018-04-10T07:25:54.924Z,14540
2018-04-10T07:26:24.919Z,13297
2018-04-10T07:26:54.933Z,13540
2018-04-10T07:27:25.021Z,13020
2018-04-10T07:27:55.651Z,12523
2018-04-10T07:28:25.071Z,11593
2018-04-10T07:28:55.060Z,11933
2018-04-10T07:29:25.114Z,11447
2018-04-10T07:29:55.121Z,10427
2018-04-10T07:30:25.224Z,10050
2018-04-10T07:30:55.230Z,10103
2018-04-10T07:31:25.227Z,10200
2018-04-10T07:31:55.258Z,11717
2018-04-10T07:32:25.374Z,12923
2018-04-10T07:32:55.344Z,13247
2018-04-10T07:33:25.372Z,14613
2018-04-10T07:33:55.355Z,16083
2018-04-10T07:34:25.471Z,17710
2018-04-10T07:34:55.428Z,17827
2018-04-10T07:35:25.613Z,18407
2018-04-10T07:35:55.515Z,17410
2018-04-10T07:36:25.590Z,16860
2018-04-10T07:36:55.602Z,15177
2018-04-10T07:37:25.593Z,13303
2018-04-10T07:37:55.613Z,12973
2018-04-10T07:38:25.718Z,12970
2018-04-10T07:38:55.705Z,13993
2018-04-10T07:39:25.808Z,16103
2018-04-10T07:39:55.822Z,17070
2018-04-10T07:40:25.829Z,16630
2018-04-10T07:40:55.886Z,16937
2018-04-10T07:41:25.884Z,15907
2018-04-10T07:41:55.875Z,15480
2018-04-10T07:42:25.935Z,15410
2018-04-10T07:42:55.951Z,14393
2018-04-10T07:43:26.017Z,14287
2018-04-10T07:43:56.008Z,14187
2018-04-10T07:44:26.065Z,14357
2018-04-10T07:44:56.076Z,14630
2018-04-10T07:45:26.110Z,15310
2018-04-10T07:45:56.413Z,16250
2018-04-10T07:46:26.149Z,16850
2018-04-10T07:46:56.187Z,18273
2018-04-10T07:47:26.245Z,19013
2018-04-10T07:47:56.224Z,19660
2018-04-10T07:48:26.309Z,20337
2018-04-10T07:48:56.324Z,21120
2018-04-10T07:49:26.364Z,21880
2018-04-10T07:49:56.386Z,22260
2018-04-10T07:50:26.451Z,22893
2018-04-10T07:50:56.436Z,23383
2018-04-10T07:51:26.508Z,23710
2018-04-10T07:51:56.492Z,23950
2018-04-10T07:52:26.526Z,23900
2018-04-10T07:52:56.534Z,23687
2018-04-10T07:53:26.574Z,22940
2018-04-10T07:53:56.614Z,21397
2018-04-10T07:54:26.704Z,20843
2018-04-10T07:54:56.681Z,20903
2018-04-10T07:55:26.742Z,21900
2018-04-10T07:55:56.766Z,23497
2018-04-10T07:56:26.763Z,24307
2018-04-10T07:56:56.817Z,23980
2018-04-10T07:57:26.892Z,23893
2018-04-10T07:57:56.834Z,24000
2018-04-10T07:58:26.882Z,24543
2018-04-10T07:58:56.906Z,25253
2018-04-10T07:59:26.944Z,25560
2018-04-10T07:59:56.966Z,25747
2018-04-10T08:00:57.024Z,25913
2018-04-10T08:01:27.076Z,25960
2018-04-10T08:01:57.089Z,26077
2018-04-10T08:02:27.179Z,26200
2018-04-10T08:02:57.183Z,26270
2018-04-10T08:03:27.207Z,26347
2018-04-10T08:03:57.220Z,26417
2018-04-10T08:04:27.301Z,26513
2018-04-10T08:04:57.271Z,26670
2018-04-10T08:05:27.322Z,26817
2018-04-10T08:05:57.391Z,26903
2018-04-10T08:06:27.436Z,27033
2018-04-10T08:06:57.419Z,27187
2018-04-10T08:07:27.474Z,27220
2018-04-10T08:07:57.523Z,27303
2018-04-10T08:08:27.580Z,27403
2018-04-10T08:08:57.525Z,27487
2018-04-10T08:09:27.616Z,27600
2018-04-10T08:09:57.685Z,27683
2018-04-10T08:10:27.671Z,27757
2018-04-10T08:10:57.716Z,27893
2018-04-10T08:11:27.702Z,27953
2018-04-10T08:11:57.706Z,28000
2018-04-10T08:12:27.757Z,28107
2018-04-10T08:12:57.784Z,28263
2018-04-10T08:13:27.820Z,28363
2018-04-10T08:13:57.905Z,28397
2018-04-10T08:14:27.884Z,28580
2018-04-10T08:14:57.880Z,28693
2018-04-10T08:15:27.932Z,28890
2018-04-10T08:15:57.949Z,28987
2018-04-10T08:16:28.000Z,29047
2018-04-10T08:16:58.009Z,29160
2018-04-10T08:17:28.054Z,29233
2018-04-10T08:17:58.108Z,29333
2018-04-10T08:18:28.129Z,29510
2018-04-10T08:18:58.146Z,29607
2018-04-10T08:19:28.218Z,29627
2018-04-10T08:19:58.196Z,29787
2018-04-10T08:20:28.268Z,29903
2018-04-10T08:20:58.296Z,30050
2018-04-10T08:21:28.335Z,30130
2018-04-10T08:21:58.319Z,30180
2018-04-10T08:22:28.401Z,30237
2018-04-10T08:22:58.385Z,30297
2018-04-10T08:23:28.454Z,30353
2018-04-10T08:23:58.504Z,30350
2018-04-10T08:24:28.553Z,30387
2018-04-10T08:24:58.582Z,30407
2018-04-10T08:25:28.577Z,30543
2018-04-10T08:25:58.610Z,30627
2018-04-10T08:26:28.643Z,30713
2018-04-10T08:26:58.649Z,30810
2018-04-10T08:27:28.671Z,30933
2018-04-10T08:27:58.692Z,31007
2018-04-10T08:28:28.797Z,31063
2018-04-10T08:28:58.786Z,31197
2018-04-10T08:29:28.825Z,31203
2018-04-10T08:29:58.851Z,31183
2018-04-10T08:30:28.934Z,31310
2018-04-10T08:30:58.915Z,31370
2018-04-10T08:31:28.995Z,31460
2018-04-10T08:31:58.931Z,31467
2018-04-10T08:32:29.027Z,31603
2018-04-10T08:32:59.050Z,31670
2018-04-10T08:33:29.089Z,31743
2018-04-10T08:33:59.095Z,31837
2018-04-10T08:34:29.144Z,31907
2018-04-10T08:34:59.163Z,32053
2018-04-10T08:35:29.236Z,32137
2018-04-10T08:35:59.224Z,32263
2018-04-10T08:36:29.313Z,32460
2018-04-10T08:36:59.279Z,32523
2018-04-10T08:37:29.334Z,32680
2018-04-10T08:37:59.354Z,32673
2018-04-10T08:38:29.400Z,32790
2018-04-10T08:38:59.423Z,32833
2018-04-10T08:39:29.455Z,32850
2018-04-10T08:39:59.466Z,32957
2018-04-10T08:40:29.505Z,33053
2018-04-10T08:40:59.599Z,33093
2018-04-10T08:41:29.535Z,33217
2018-04-10T08:41:59.570Z,33260
2018-04-10T08:42:29.637Z,33340
2018-04-10T08:42:59.612Z,33283
2018-04-10T08:43:29.680Z,33360
2018-04-10T08:43:59.673Z,33540
2018-04-10T08:44:29.718Z,33603
2018-04-10T08:44:59.790Z,33677
2018-04-10T08:45:29.806Z,33610
2018-04-10T08:45:59.803Z,33633
2018-04-10T08:46:29.845Z,33667
2018-04-10T08:46:59.936Z,33763
2018-04-10T08:47:29.944Z,33833
2018-04-10T08:47:59.943Z,33813
2018-04-10T08:48:30.008Z,33917
2018-04-10T08:48:59.991Z,34010
2018-04-10T08:49:30.367Z,34130
2018-04-10T08:50:00.067Z,34163
2018-04-10T08:50:30.127Z,34223
2018-04-10T08:51:00.144Z,34353
2018-04-10T08:51:30.180Z,34410
2018-04-10T08:52:00.194Z,34527
2018-04-10T08:52:30.216Z,34610
2018-04-10T08:53:01.492Z,34667
2018-04-10T08:53:30.326Z,34903
2018-04-10T08:54:02.156Z,34980
2018-04-10T08:54:30.371Z,35020
2018-04-10T08:55:01.350Z,35073
2018-04-10T08:55:30.491Z,35157
2018-04-10T08:56:01.441Z,35217
2018-04-10T08:56:30.494Z,35337
2018-04-10T08:57:01.003Z,35467
2018-04-10T08:57:30.568Z,35583
2018-04-10T08:58:01.655Z,35693
2018-04-10T08:58:30.595Z,35787
2018-04-10T08:59:01.693Z,35453
2018-04-10T08:59:30.667Z,35237
2018-04-10T09:00:01.594Z,34990
2018-04-10T09:00:30.770Z,34253
2018-04-10T09:01:00.923Z,32437
2018-04-10T09:01:30.780Z,34603
2018-04-10T09:02:01.369Z,34477
2018-04-10T09:02:30.866Z,35543
2018-04-10T09:03:01.876Z,36327
2018-04-10T09:03:30.898Z,36393
2018-04-10T09:04:01.330Z,36507
2018-04-10T09:04:30.964Z,36563
2018-04-10T09:05:01.124Z,36510
2018-04-10T09:05:31.057Z,36523
2018-04-10T09:06:01.573Z,36537
2018-04-10T09:06:31.105Z,36590
2018-04-10T09:07:01.503Z,36650
2018-04-10T09:07:31.142Z,36717
2018-04-10T09:08:01.589Z,36820
2018-04-10T09:08:31.239Z,36797
2018-04-10T09:09:01.216Z,36800
2018-04-10T09:09:31.317Z,36847
2018-04-10T09:10:01.308Z,36883
2018-04-10T09:10:31.354Z,36860
2018-04-10T09:11:01.511Z,36913
2018-04-10T09:11:31.447Z,36943
2018-04-10T09:12:01.677Z,37007
2018-04-10T09:12:31.494Z,36983
2018-04-10T09:13:01.650Z,37060
2018-04-10T09:13:31.584Z,37177
2018-04-10T09:14:01.530Z,37313
2018-04-10T09:14:31.627Z,37370
2018-04-10T09:15:01.614Z,37433
2018-04-10T09:15:31.807Z,37480
2018-04-10T09:16:01.707Z,37607
2018-04-10T09:16:31.793Z,37647
2018-04-10T09:17:01.724Z,37690
2018-04-10T09:17:31.817Z,37817
2018-04-10T09:18:01.777Z,37820
2018-04-10T09:18:31.878Z,37973
2018-04-10T09:19:01.906Z,37987
2018-04-10T09:19:31.882Z,38063
2018-04-10T09:20:01.927Z,38053
2018-04-10T09:20:31.945Z,38157
2018-04-10T09:21:01.993Z,38203
2018-04-10T09:21:32.065Z,38153
2018-04-10T09:22:02.046Z,38277
2018-04-10T09:22:32.221Z,38350
2018-04-10T09:23:02.115Z,38437
2018-04-10T09:23:32.199Z,38643
2018-04-10T09:24:02.227Z,38770
2018-04-10T09:24:32.243Z,38860
2018-04-10T09:25:02.288Z,38627
2018-04-10T09:25:32.344Z,38840
2018-04-10T09:26:02.295Z,39033
2018-04-10T09:26:32.398Z,39020
2018-04-10T09:27:02.365Z,38497
2018-04-10T09:27:32.435Z,39253
2018-04-10T09:28:02.428Z,39267
2018-04-10T09:28:32.493Z,39360
2018-04-10T09:29:02.552Z,39307
2018-04-10T09:29:32.583Z,39363
2018-04-10T09:30:02.553Z,39573
2018-04-10T09:30:32.564Z,39423
2018-04-10T09:31:02.588Z,39370
2018-04-10T09:31:32.748Z,39307
2018-04-10T09:32:02.664Z,39033
2018-04-10T09:32:32.746Z,39163
2018-04-10T09:33:32.761Z,39150
2018-04-10T09:34:02.798Z,39087
2018-04-10T09:34:32.820Z,39107
2018-04-10T09:35:02.826Z,39070
2018-04-10T09:35:32.873Z,39020
2018-04-10T09:36:02.889Z,39130
2018-04-10T09:36:32.994Z,39627
2018-04-10T09:37:02.995Z,39717
2018-04-10T09:37:33.029Z,39803
2018-04-10T09:38:03.091Z,39927
2018-04-10T09:38:33.064Z,39970
2018-04-10T09:39:03.072Z,39917
2018-04-10T09:39:33.117Z,39833
2018-04-10T09:40:03.147Z,40003
2018-04-10T09:40:33.191Z,40270
2018-04-10T09:41:03.309Z,40400
2018-04-10T09:41:33.378Z,40427
2018-04-10T09:42:03.264Z,40527
2018-04-10T09:42:33.333Z,40643
2018-04-10T09:43:03.360Z,40737
2018-04-10T09:43:33.428Z,40723
2018-04-10T09:44:03.436Z,40700
2018-04-10T09:44:33.482Z,40857
2018-04-10T09:45:03.472Z,40963
2018-04-10T09:45:33.544Z,40870
2018-04-10T09:46:03.532Z,40880
2018-04-10T09:46:33.866Z,40913
2018-04-10T09:47:03.590Z,40590
2018-04-10T09:47:33.668Z,40393
2018-04-10T09:48:03.661Z,40663
2018-04-10T09:48:33.692Z,40683
2018-04-10T09:49:03.709Z,40577
2018-04-10T09:49:33.772Z,40213
2018-04-10T09:50:03.762Z,40070
2018-04-10T09:50:33.809Z,39837
2018-04-10T09:51:03.823Z,40323
2018-04-10T09:51:33.913Z,40233
2018-04-10T09:52:03.889Z,40133
2018-04-10T09:52:33.941Z,40333
2018-04-10T09:53:03.951Z,40677
2018-04-10T09:53:34.008Z,40530
2018-04-10T09:54:04.037Z,40470
2018-04-10T09:54:34.056Z,40870
2018-04-10T09:55:04.073Z,41217
2018-04-10T09:55:34.122Z,41900
2018-04-10T09:56:04.242Z,41813
2018-04-10T09:56:34.236Z,41720
2018-04-10T09:57:04.239Z,41670
2018-04-10T09:57:34.244Z,41803
2018-04-10T09:58:04.332Z,41740
2018-04-10T09:58:34.322Z,41423
2018-04-10T09:59:04.370Z,41657
2018-04-10T09:59:34.413Z,41743
2018-04-10T10:00:04.386Z,41450
2018-04-10T10:00:34.445Z,41227
2018-04-10T10:01:04.489Z,40853
2018-04-10T10:01:34.528Z,40697
2018-04-10T10:02:04.538Z,40653
2018-04-10T10:02:34.607Z,41283
2018-04-10T10:03:04.561Z,41217
2018-04-10T10:03:34.635Z,40943
2018-04-10T10:04:04.672Z,41017
2018-04-10T10:04:34.737Z,41477
2018-04-10T10:05:04.761Z,41700
2018-04-10T10:05:34.783Z,42120
2018-04-10T10:06:04.827Z,41880
2018-04-10T10:06:34.839Z,42267
2018-04-10T10:07:04.825Z,42253
2018-04-10T10:07:34.935Z,42393
2018-04-10T10:08:04.894Z,42440
2018-04-10T10:08:34.933Z,42263
2018-04-10T10:09:04.934Z,42430
2018-04-10T10:09:34.976Z,42333
2018-04-10T10:10:05.011Z,42250
2018-04-10T10:10:35.099Z,42260
2018-04-10T10:11:05.096Z,42223
2018-04-10T10:11:35.163Z,42413
2018-04-10T10:12:05.158Z,42367
2018-04-10T10:12:35.252Z,42417
2018-04-10T10:13:05.244Z,42317
2018-04-10T10:13:35.253Z,42240
2018-04-10T10:14:05.329Z,42447
2018-04-10T10:14:35.371Z,42390
2018-04-10T10:15:05.370Z,42460
2018-04-10T10:15:35.442Z,41517
2018-04-10T10:16:05.434Z,41690
2018-04-10T10:16:35.449Z,41537
2018-04-10T10:17:05.496Z,41937
2018-04-10T10:17:35.601Z,42443
2018-04-10T10:18:05.543Z,42703
2018-04-10T10:18:35.541Z,42557
2018-04-10T10:19:05.583Z,42773
2018-04-10T10:19:35.629Z,42993
2018-04-10T10:20:05.616Z,43050
2018-04-10T10:20:35.722Z,43097
2018-04-10T10:21:05.698Z,42813
2018-04-10T10:21:35.742Z,42887
2018-04-10T10:22:05.795Z,42770
2018-04-10T10:22:35.848Z,42817
2018-04-10T10:23:05.833Z,42807
2018-04-10T10:23:35.849Z,42737
2018-04-10T10:24:05.867Z,43217
2018-04-10T10:24:35.921Z,43423
2018-04-10T10:25:05.939Z,43437
2018-04-10T10:25:35.971Z,43213
2018-04-10T10:26:06.010Z,43003
2018-04-10T10:26:36.037Z,42867
2018-04-10T10:27:06.064Z,43037
2018-04-10T10:27:36.148Z,43030
2018-04-10T10:28:06.129Z,42793
2018-04-10T10:28:36.161Z,43320
2018-04-10T10:29:06.219Z,43640
2018-04-10T10:29:36.231Z,43417
2018-04-10T10:30:06.305Z,43167
2018-04-10T10:30:36.297Z,43023
2018-04-10T10:31:06.355Z,42913
2018-04-10T10:31:36.396Z,42943
2018-04-10T10:32:06.456Z,43350
2018-04-10T10:32:36.461Z,43620
2018-04-10T10:33:06.463Z,43237
2018-04-10T10:33:36.477Z,42920
2018-04-10T10:34:06.529Z,42840
2018-04-10T10:34:36.542Z,43150
2018-04-10T10:35:06.557Z,43347
2018-04-10T10:35:36.594Z,43307
2018-04-10T10:36:06.651Z,43697
2018-04-10T10:36:36.672Z,43377
2018-04-10T10:37:06.710Z,43443
2018-04-10T10:37:36.746Z,43507
2018-04-10T10:38:06.774Z,43510
2018-04-10T10:38:36.797Z,43483
2018-04-10T10:39:06.817Z,43613
2018-04-10T10:39:36.865Z,43733
2018-04-10T10:40:06.867Z,43850
2018-04-10T10:40:36.908Z,43450
2018-04-10T10:41:06.986Z,43577
2018-04-10T10:41:36.972Z,44003
2018-04-10T10:42:06.991Z,43823
2018-04-10T10:42:37.033Z,43640
2018-04-10T10:43:07.068Z,43590
2018-04-10T10:43:37.082Z,43257
2018-04-10T10:44:07.105Z,43317
2018-04-10T10:44:37.145Z,43510
2018-04-10T10:45:07.166Z,43430
2018-04-10T10:45:37.250Z,43510
2018-04-10T10:46:07.221Z,43483
2018-04-10T10:46:37.290Z,43970
2018-04-10T10:47:07.303Z,43873
2018-04-10T10:47:37.370Z,43947
2018-04-10T10:48:07.400Z,43933
2018-04-10T10:48:37.427Z,43917
2018-04-10T10:49:07.494Z,43903
2018-04-10T10:49:37.495Z,43987
2018-04-10T10:50:07.495Z,44367
2018-04-10T10:50:37.596Z,44387
2018-04-10T10:51:07.619Z,43977
2018-04-10T10:51:37.620Z,44397
2018-04-10T10:52:07.664Z,44527
2018-04-10T10:52:37.679Z,44693
2018-04-10T10:53:07.705Z,44220
2018-04-10T10:53:37.768Z,44167
2018-04-10T10:54:07.756Z,44033
2018-04-10T10:54:37.796Z,44440
2018-04-10T10:55:07.810Z,43893
2018-04-10T10:55:37.872Z,44137